Terminal Aerodrome Forecast
Issued by NWS

Home | Current Version | Previous Version | Text Only | Print | Product List | Glossary On
Versions: 1 2 3 4 5 6 7 8 9 10 11 12
000
FTUS44 KLZK 271120
TAFLIT
TAF
KLIT 271120Z 2712/2812 12006KT P6SM SCT050 BKN150
      TEMPO 2712/2713 5SM BR
     FM271400 VRB04KT P6SM VCTS SCT040CB BKN080
      TEMPO 2718/2722 3SM TSRA BR BKN030CB
     FM272200 18005KT P6SM -SHRA SCT040 BKN100
      TEMPO 2722/2801 5SM -TSRA OVC040CB
     FM280600 VRB03KT P6SM OVC100
     FM280900 15004KT P6SM SCT250
      TEMPO 2809/2812 5SM BR SCT015=

USA.gov is the U.S. government's official web portal to all federal, state and local government web resources and services.